Forside
METAR-TAF:

METAR-TAF

Lufthavne :

Chicago Rockford International Airport

Rockford, Illinois, USA

Breddekreds: 42-11-34N, længdekreds: 089-05-36W, højde: 224 m

Aktuelle vejr

Denne rapport blev lavet for 21 minutter siden, kl. 16:54 UTC
Vind 9 kt fra nord
Temperatur 27°C
Fugtighed 28%
Tryk 1019 hPa
Sigt: 16.1 km
Nogle få skyer i en højde af 11000 ft

METAR: KRFD 061654Z 36009KT 10SM FEW110 27/07 A3009 RMK AO2 SLP185 T02720072 $

Tid: 12:15 (17:15 UTC)

Vejrudsigter

Denne rapport blev lavet for 2 timer og 13 minutter siden, kl. 15:02 UTC
Foreløbig gælder fra 06 på 15 UTC til 07 på 12 UTC
Vind 9 kt fra nordnordøst
Sigt: 10 km
Nogle få skyer i en højde af 12000 ft
Spredte skyer i en højde af 25000 ft
Fra 07 på 0200 UTC
Vind 9 kt fra øst
Sigt: 10 km
Spredte skyer i en højde af 25000 ft

TAF: KRFD 061502Z 0615/0712 03009KT P6SM FEW120 SCT250 FM070200 09009KT P6SM SCT250

Vejrobservationer og prognoser fra mere end 4000 lufthavne (METAR og TAF).

De gule og røde prikker repræsenterer de meteorologiske stationer.

Flyt musen over at se navnet på stationen.

Så klik over at se vejr observationer og prognoser.

At skifte det kort: Klik på de grønne knapper med et sort kors for at zoome ind; på den grønne knap med en bindestreg for at zoome ud; eller på de grønne pile for tilstødende kort.


METAR-TAF: